Time;durP1;ratioP1;P1;durP2;ratioP2;P2;SDS_P1;SDS_P2;PMS_P1;PMS_P2;Temp;Humidity;BMP_temperature;BMP_pressure;BME280_temperature;BME280_humidity;BME280_pressure;Samples;Min_cycle;Max_cycle;Signal;HPM_P1;HPM_P2
2022/03/17 00:01:23;;;;;;;0.00;0.00;;;;;;;7.96;54.25;101910.72;7361031;19;20093;-61
2022/03/17 00:03:49;;;;;;;0.00;0.00;;;;;;;7.95;54.25;101915.88;7355625;19;20014;-62
2022/03/17 00:06:14;;;;;;;0.00;0.00;;;;;;;7.82;54.90;101888.06;7360925;19;20026;-61
2022/03/17 00:08:40;;;;;;;0.00;0.00;;;;;;;7.90;54.99;101902.84;7362151;19;20010;-62
2022/03/17 00:11:06;;;;;;;0.00;0.00;;;;;;;7.89;55.37;101903.69;7350901;19;20018;-62
2022/03/17 00:13:31;;;;;;;0.10;0.10;;;;;;;7.86;55.37;101893.28;7355256;19;20013;-63
2022/03/17 00:15:57;;;;;;;0.10;0.10;;;;;;;7.85;55.41;101894.13;7352566;19;20039;-63
2022/03/17 00:18:23;;;;;;;0.10;0.10;;;;;;;7.72;55.59;101876.72;7360505;19;20094;-63
2022/03/17 00:20:49;;;;;;;0.00;0.00;;;;;;;7.82;55.75;101894.13;7364659;19;20030;-62
2022/03/17 00:23:14;;;;;;;0.00;0.00;;;;;;;7.80;55.67;101895.81;7364924;19;20011;-64
2022/03/17 00:25:40;;;;;;;0.00;0.00;;;;;;;7.76;55.79;101888.88;7355954;19;20017;-63
2022/03/17 00:28:06;;;;;;;0.00;0.00;;;;;;;7.76;55.50;101894.94;7359030;19;20025;-63
2022/03/17 00:30:31;;;;;;;0.00;0.00;;;;;;;7.67;55.70;101883.59;7360691;19;22020;-63
2022/03/17 00:32:57;;;;;;;0.00;0.00;;;;;;;7.71;55.85;101895.78;7357702;19;20019;-63
2022/03/17 00:35:38;;;;;;;0.05;0.05;;;;;;;7.57;55.31;101887.84;3686024;19;10280115;-63
2022/03/17 00:38:07;;;;;;;0.00;0.00;;;;;;;7.65;55.57;101900.91;5521167;19;10001182;-63
2022/03/17 00:40:37;;;;;;;0.10;0.10;;;;;;;7.62;56.08;101893.09;7359438;19;20451;-63
2022/03/17 00:43:04;;;;;;;0.10;0.10;;;;;;;7.56;56.01;101883.50;7359339;19;20010;-63
2022/03/17 00:45:30;;;;;;;0.03;0.03;;;;;;;7.56;55.84;101883.50;7355763;19;20082;-63
2022/03/17 00:47:55;;;;;;;0.00;0.00;;;;;;;7.52;55.99;101884.34;7358342;19;20078;-62
2022/03/17 00:50:22;;;;;;;0.00;0.00;;;;;;;7.47;56.55;101876.50;7359745;19;20010;-63
2022/03/17 00:52:47;;;;;;;0.00;0.00;;;;;;;7.44;56.53;101881.66;7356994;19;20477;-63
2022/03/17 00:55:14;;;;;;;0.00;0.00;;;;;;;7.41;56.46;101889.44;7360865;19;20006;-63
2022/03/17 00:57:40;;;;;;;0.00;0.00;;;;;;;7.40;56.67;101879.91;7356765;19;20029;-63
2022/03/17 01:00:08;;;;;;;0.10;0.10;;;;;;;7.38;56.21;101888.53;7359228;19;20014;-64
2022/03/17 01:02:34;;;;;;;0.00;0.00;;;;;;;7.27;56.19;101867.66;7350829;19;20010;-63
2022/03/17 01:05:00;;;;;;;0.00;0.00;;;;;;;7.30;56.85;101888.47;7355820;19;20006;-63
2022/03/17 01:07:25;;;;;;;0.00;0.00;;;;;;;7.26;57.30;101886.69;7350974;19;20026;-63
2022/03/17 01:09:51;;;;;;;0.00;0.00;;;;;;;7.23;57.03;101887.53;7365975;19;20006;-63
2022/03/17 01:12:16;;;;;;;0.00;0.00;;;;;;;7.21;57.28;101885.78;7366181;19;20006;-63
2022/03/17 01:14:42;;;;;;;0.00;0.00;;;;;;;7.09;57.59;101864.84;7363518;19;20082;-63
2022/03/17 01:17:08;;;;;;;0.00;0.00;;;;;;;7.16;57.55;101879.66;7362275;19;20014;-63
2022/03/17 01:19:34;;;;;;;0.00;0.00;;;;;;;7.17;57.05;101889.19;7360053;19;20010;-63
2022/03/17 01:21:59;;;;;;;0.05;0.05;;;;;;;7.09;57.65;101889.09;7353250;19;20011;-63
2022/03/17 01:24:25;;;;;;;0.10;0.10;;;;;;;7.14;57.89;101891.75;7355178;19;20035;-63
2022/03/17 01:26:50;;;;;;;0.08;0.08;;;;;;;7.11;57.75;101891.72;7353092;19;20027;-63
2022/03/17 01:29:16;;;;;;;0.03;0.03;;;;;;;6.94;57.84;101863.84;7357029;19;20031;-63
2022/03/17 01:31:42;;;;;;;0.00;0.00;;;;;;;7.06;58.17;101896.00;7355405;19;20729;-63
2022/03/17 01:34:07;;;;;;;0.10;0.10;;;;;;;7.03;58.13;101891.63;7354309;19;20006;-63
2022/03/17 01:36:33;;;;;;;0.00;0.00;;;;;;;7.03;58.07;101907.22;7355424;19;20039;-63
2022/03/17 01:38:58;;;;;;;0.00;0.00;;;;;;;7.01;57.74;101907.22;7357126;19;20050;-63
2022/03/17 01:41:24;;;;;;;0.00;0.00;;;;;;;7.00;57.74;101902.00;7353827;19;20085;-63
2022/03/17 01:43:49;;;;;;;0.10;0.10;;;;;;;6.98;58.09;101909.75;7356919;19;20018;-63
2022/03/17 01:46:15;;;;;;;0.10;0.10;;;;;;;6.97;58.24;101905.44;7357629;19;20031;-63
2022/03/17 01:48:42;;;;;;;0.00;0.00;;;;;;;6.96;57.84;101908.03;7356549;19;20018;-63
2022/03/17 01:51:09;;;;;;;0.00;0.00;;;;;;;6.94;58.19;101904.50;7360075;19;20127;-63
2022/03/17 01:53:35;;;;;;;0.00;0.00;;;;;;;6.91;58.26;101902.78;7360005;19;20007;-63
2022/03/17 01:56:02;;;;;;;0.00;0.00;;;;;;;6.90;58.13;101911.41;7359857;19;20018;-63
2022/03/17 01:58:27;;;;;;;0.10;0.10;;;;;;;6.88;58.42;101910.50;7356568;19;20035;-63
2022/03/17 02:00:53;;;;;;;0.00;0.00;;;;;;;6.84;58.21;101903.53;7363835;19;20053;-63
2022/03/17 02:03:19;;;;;;;0.00;0.00;;;;;;;6.80;58.63;101900.91;7365448;19;20031;-63
2022/03/17 02:05:45;;;;;;;0.00;0.00;;;;;;;6.80;58.92;101901.78;7356062;19;20033;-63
2022/03/17 02:08:14;;;;;;;0.00;0.00;;;;;;;6.80;58.75;101901.78;7359876;19;20011;-63
2022/03/17 02:13:24;;;;;;;0.00;0.00;;;;;;;6.75;58.46;101898.25;7357698;19;20021;-63
2022/03/17 02:15:51;;;;;;;0.00;0.00;;;;;;;6.74;58.22;101901.69;7358150;19;20002;-63
2022/03/17 02:18:17;;;;;;;0.00;0.00;;;;;;;6.73;58.20;101905.13;7352857;19;20355;-63
2022/03/17 02:20:43;;;;;;;0.00;0.00;;;;;;;6.69;59.05;101899.06;7356849;19;20018;-63
2022/03/17 02:25:59;;;;;;;0.00;0.00;;;;;;;6.67;58.58;101894.69;7356431;19;20031;-63
2022/03/17 02:28:29;;;;;;;0.00;0.00;;;;;;;6.55;58.96;101874.66;7259782;19;20014;-63
2022/03/17 02:30:55;;;;;;;0.00;0.00;;;;;;;6.62;59.46;101885.97;1169358;19;10002189;-62
2022/03/17 02:33:21;;;;;;;0.00;0.00;;;;;;;6.61;59.29;101884.22;7354003;19;20611;-63
2022/03/17 02:35:49;;;;;;;0.00;0.00;;;;;;;6.61;58.96;101889.41;7348356;19;20016;-63
2022/03/17 02:38:15;;;;;;;0.10;0.10;;;;;;;6.59;59.13;101891.09;7356275;19;20019;-62
2022/03/17 02:40:44;;;;;;;0.00;0.00;;;;;;;6.58;59.31;101889.38;7359865;19;20648;-62
2022/03/17 02:43:11;;;;;;;0.00;0.00;;;;;;;6.56;59.14;101891.09;7357512;19;20643;-62
2022/03/17 02:45:37;;;;;;;0.00;0.00;;;;;;;6.55;58.29;101894.53;7365611;19;20404;-61
2022/03/17 02:48:04;;;;;;;0.00;0.00;;;;;;;6.52;58.88;101889.28;7361509;19;20030;-63
2022/03/17 02:50:30;;;;;;;0.10;0.10;;;;;;;6.49;58.83;101891.00;7366814;19;20018;-63
2022/03/17 02:52:57;;;;;;;0.00;0.00;;;;;;;6.47;59.05;101892.69;7364646;19;20335;-63
2022/03/17 02:55:23;;;;;;;0.08;0.08;;;;;;;6.45;58.63;101899.59;7358559;19;20881;-63
2022/03/17 02:57:49;;;;;;;0.00;0.00;;;;;;;6.43;58.95;101890.91;7352965;19;20010;-62
2022/03/17 03:00:15;;;;;;;0.00;0.00;;;;;;;6.40;59.43;101893.47;7343811;19;20011;-63
2022/03/17 03:02:44;;;;;;;0.00;0.00;;;;;;;6.38;59.51;101897.75;7350833;19;20094;-63
2022/03/17 03:05:10;;;;;;;0.00;0.00;;;;;;;6.35;59.64;101889.94;7353961;19;20011;-63
2022/03/17 03:07:36;;;;;;;0.00;0.00;;;;;;;6.35;59.17;101891.69;7347255;19;20964;-63
2022/03/17 03:10:04;;;;;;;0.00;0.00;;;;;;;6.22;59.54;101867.28;7355993;19;20031;-62
2022/03/17 03:12:30;;;;;;;0.10;0.10;;;;;;;6.22;58.96;101865.53;7348892;19;20026;-62
2022/03/17 03:14:55;;;;;;;0.00;0.00;;;;;;;6.29;59.48;101870.84;7352872;19;20039;-63
2022/03/17 03:17:21;;;;;;;0.00;0.00;;;;;;;6.27;60.16;101873.41;7350122;19;20018;-63
2022/03/17 03:19:48;;;;;;;0.00;0.00;;;;;;;6.26;59.96;101876.84;7352027;19;20019;-63
2022/03/17 03:22:14;;;;;;;0.10;0.10;;;;;;;6.23;60.13;101867.31;7345868;19;20042;-63
2022/03/17 03:24:39;;;;;;;0.00;0.00;;;;;;;6.14;60.11;101850.75;7342087;19;20011;-63
2022/03/17 03:27:05;;;;;;;0.08;0.08;;;;;;;6.22;60.22;101860.34;7352305;19;20026;-63
2022/03/17 03:29:31;;;;;;;0.00;0.00;;;;;;;6.14;60.41;101845.56;7352016;19;20023;-62
2022/03/17 03:31:59;;;;;;;0.10;0.10;;;;;;;6.22;60.17;101854.31;7341358;19;20014;-63
2022/03/17 03:34:27;;;;;;;0.00;0.00;;;;;;;6.22;60.54;101849.13;7354762;19;20007;-63
2022/03/17 03:39:38;;;;;;;0.00;0.00;;;;;;;6.19;59.82;101839.59;7354913;19;20263;-63
2022/03/17 03:42:05;;;;;;;0.00;0.00;;;;;;;6.18;60.71;101843.03;7346824;19;22060;-63
2022/03/17 03:44:30;;;;;;;0.00;0.00;;;;;;;6.18;60.50;101847.31;7354468;19;20014;-63
2022/03/17 03:46:56;;;;;;;0.00;0.00;;;;;;;6.16;61.42;101833.47;7336669;19;20019;-63
2022/03/17 03:49:21;;;;;;;0.00;0.00;;;;;;;6.15;61.31;101830.00;7346844;19;20011;-63
2022/03/17 03:51:47;;;;;;;0.03;0.03;;;;;;;6.16;60.98;101830.88;7352024;19;20815;-63
2022/03/17 03:54:13;;;;;;;0.10;0.10;;;;;;;6.16;61.04;101838.66;7354803;19;20014;-63
2022/03/17 03:56:40;;;;;;;0.00;0.00;;;;;;;6.12;61.28;101827.38;7355258;19;20014;-62
2022/03/17 03:59:08;;;;;;;0.10;0.10;;;;;;;6.15;61.82;101832.59;7355657;19;20020;-63
2022/03/17 04:01:33;;;;;;;0.00;0.00;;;;;;;6.13;61.95;101828.22;7353611;19;20378;-62
2022/03/17 04:04:01;;;;;;;0.10;0.10;;;;;;;6.15;61.64;101827.44;7358691;19;20034;-63
2022/03/17 04:06:27;;;;;;;0.00;0.00;;;;;;;6.13;61.68;101808.38;7351422;19;20023;-63
2022/03/17 04:08:52;;;;;;;0.00;0.00;;;;;;;6.17;61.79;101814.47;7356042;19;20042;-63
2022/03/17 04:11:17;;;;;;;0.10;0.10;;;;;;;6.18;60.39;101816.19;7362203;19;20719;-63
2022/03/17 04:13:43;;;;;;;0.10;0.10;;;;;;;5.87;61.35;101758.72;7363630;19;20010;-63
2022/03/17 04:16:09;;;;;;;0.00;0.00;;;;;;;6.20;62.12;101817.13;7358159;19;20029;-63
2022/03/17 04:18:34;;;;;;;0.00;0.00;;;;;;;6.21;61.50;101817.13;7353867;19;20749;-63
2022/03/17 04:21:11;;;;;;;0.10;0.10;;;;;;;6.24;60.00;101819.78;3967068;19;10003010;-63
2022/03/17 04:23:37;;;;;;;0.10;0.10;;;;;;;6.26;60.68;101824.97;5025057;19;10001801;-63
2022/03/17 04:26:02;;;;;;;0.10;0.10;;;;;;;6.27;61.14;101826.69;7361302;19;20612;-63
2022/03/17 04:28:27;;;;;;;0.00;0.00;;;;;;;6.29;61.07;101818.97;7362680;19;20007;-63
2022/03/17 04:30:53;;;;;;;0.00;0.00;;;;;;;6.32;60.98;101817.25;7363864;19;20039;-62
2022/03/17 04:33:18;;;;;;;0.08;0.08;;;;;;;6.33;61.72;101816.41;7361676;19;20014;-62
2022/03/17 04:35:44;;;;;;;0.00;0.00;;;;;;;6.36;61.19;101816.44;7360561;19;20011;-63
2022/03/17 04:38:09;;;;;;;0.00;0.00;;;;;;;6.39;61.78;101813.91;7366674;19;20015;-63
2022/03/17 04:40:34;;;;;;;0.10;0.10;;;;;;;6.42;61.39;101811.34;7362513;19;20035;-62
2022/03/17 04:43:00;;;;;;;0.00;0.00;;;;;;;6.46;61.55;101813.13;7362542;19;20026;-63
2022/03/17 04:45:25;;;;;;;0.00;0.00;;;;;;;6.46;62.13;101807.06;7363234;19;20029;-62
2022/03/17 04:47:51;;;;;;;0.00;0.00;;;;;;;6.52;61.67;101821.81;7358594;19;20019;-63
2022/03/17 04:50:16;;;;;;;0.00;0.00;;;;;;;6.56;61.82;101823.59;7362100;19;20030;-63
2022/03/17 04:55:26;;;;;;;0.08;0.08;;;;;;;6.64;60.88;101832.34;7359858;19;20026;-63
2022/03/17 04:57:51;;;;;;;0.00;0.00;;;;;;;6.63;61.93;101828.88;7361939;19;20018;-63
2022/03/17 05:00:17;;;;;;;0.00;0.00;;;;;;;6.69;61.82;101830.66;7361333;19;20010;-63
2022/03/17 05:02:42;;;;;;;0.00;0.00;;;;;;;6.70;62.02;101833.31;7364690;19;20014;-63
2022/03/17 05:05:08;;;;;;;0.10;0.10;;;;;;;6.73;61.86;101835.03;7362297;19;20019;-63
2022/03/17 05:07:34;;;;;;;0.00;0.00;;;;;;;6.76;61.95;101827.31;7361707;19;20014;-63
2022/03/17 05:09:59;;;;;;;0.00;0.00;;;;;;;6.79;62.17;101842.91;7360353;19;20013;-62
2022/03/17 05:12:25;;;;;;;0.03;0.03;;;;;;;6.83;61.43;101842.06;7361019;19;20673;-62
2022/03/17 05:14:50;;;;;;;0.00;0.00;;;;;;;6.84;62.24;101845.53;7362407;19;20581;-62
2022/03/17 05:17:16;;;;;;;0.08;0.08;;;;;;;6.83;62.35;101831.69;7364781;19;20033;-62
2022/03/17 05:19:41;;;;;;;0.00;0.00;;;;;;;6.88;62.25;101832.63;7355633;19;20021;-63
2022/03/17 05:22:07;;;;;;;0.00;0.00;;;;;;;6.91;61.24;101837.84;7356530;19;20097;-62
2022/03/17 05:24:33;;;;;;;0.10;0.10;;;;;;;6.94;62.04;101835.28;7364377;19;20108;-63
2022/03/17 05:26:59;;;;;;;0.10;0.10;;;;;;;6.96;61.95;101820.59;7359321;19;20094;-62
2022/03/17 05:29:24;;;;;;;0.00;0.00;;;;;;;6.98;62.44;101818.88;7361780;19;20104;-63
2022/03/17 05:31:50;;;;;;;0.00;0.00;;;;;;;7.02;62.65;101809.38;7362123;19;20044;-62
2022/03/17 05:34:15;;;;;;;0.10;0.10;;;;;;;7.01;62.66;101805.94;7357366;19;20498;-63
2022/03/17 05:36:41;;;;;;;0.00;0.00;;;;;;;7.07;62.80;101817.22;7363795;19;20112;-62
2022/03/17 05:39:06;;;;;;;0.10;0.10;;;;;;;7.08;61.85;101809.44;7357329;19;20010;-62
2022/03/17 05:41:31;;;;;;;0.00;0.00;;;;;;;7.15;62.05;101813.00;7364271;19;20017;-62
2022/03/17 05:43:57;;;;;;;0.10;0.10;;;;;;;7.09;62.87;101795.59;7345331;19;20030;-62
2022/03/17 05:46:25;;;;;;;0.10;0.10;;;;;;;7.23;63.28;101806.97;7361544;19;20371;-62
2022/03/17 05:48:51;;;;;;;;;;;;;;;7.31;61.30;101820.06;7364800;19;20019;-62
2022/03/17 05:51:16;;;;;;;0.10;0.10;;;;;;;7.37;62.45;101817.50;7352336;19;19926;-62
2022/03/17 05:53:42;;;;;;;0.00;0.00;;;;;;;7.42;63.42;101809.75;7353713;19;20014;-62
2022/03/17 05:56:07;;;;;;;0.10;0.10;;;;;;;7.47;63.19;101819.31;7355703;19;20101;-63
2022/03/17 05:58:33;;;;;;;0.10;0.10;;;;;;;7.56;63.01;101822.88;7349358;19;20734;-62
2022/03/17 06:00:59;;;;;;;0.00;0.00;;;;;;;7.59;63.42;101812.47;7359846;19;20792;-62
2022/03/17 06:03:25;;;;;;;0.10;0.10;;;;;;;7.68;63.25;101809.94;7358660;19;20031;-62
2022/03/17 06:05:50;;;;;;;0.00;0.00;;;;;;;7.75;62.76;101814.31;7361322;19;20763;-62
2022/03/17 06:08:15;;;;;;;0.00;0.00;;;;;;;7.81;63.37;101822.19;7350917;19;20034;-62
2022/03/17 06:10:41;;;;;;;0.00;0.00;;;;;;;7.88;62.77;101826.53;7358845;19;20010;-62
2022/03/17 06:13:18;;;;;;;0.00;0.00;;;;;;;7.92;62.26;101836.13;5662201;19;10150148;-63
2022/03/17 06:15:44;;;;;;;0.00;0.00;;;;;;;7.99;62.77;101829.22;3245721;19;10001974;-63
2022/03/17 06:18:10;;;;;;;0.10;0.10;;;;;;;8.04;63.16;101838.78;7356847;19;20010;-63
2022/03/17 06:20:38;;;;;;;0.00;0.00;;;;;;;8.11;62.54;101836.22;7352301;19;20017;-62
2022/03/17 06:23:05;;;;;;;0.08;0.08;;;;;;;8.14;63.03;101844.03;7356552;19;20082;-61
2022/03/17 06:25:33;;;;;;;0.00;0.00;;;;;;;8.22;62.55;101847.56;7356116;19;20014;-62
2022/03/17 06:27:58;;;;;;;0.05;0.05;;;;;;;8.13;63.20;101816.28;7355724;19;20027;-63
2022/03/17 06:30:30;;;;;;;0.00;0.00;;;;;;;8.26;62.98;101833.69;7359026;19;20015;-63
2022/03/17 06:32:56;;;;;;;0.00;0.00;;;;;;;8.32;64.64;101847.63;7359044;19;20018;-62
2022/03/17 06:35:24;;;;;;;0.00;0.00;;;;;;;8.35;64.41;101845.88;7355815;19;20009;-63
2022/03/17 06:37:55;;;;;;;0.00;0.00;;;;;;;8.36;64.56;101838.09;7355616;19;20010;-63
2022/03/17 06:40:22;;;;;;;0.00;0.00;;;;;;;8.33;64.75;101835.47;7361716;19;20022;-63
2022/03/17 06:42:48;;;;;;;0.00;0.00;;;;;;;8.33;64.53;101825.06;7354417;19;20077;-63
2022/03/17 06:45:14;;;;;;;0.00;0.00;;;;;;;8.31;65.35;101821.56;7350330;19;20419;-63
2022/03/17 06:47:40;;;;;;;0.10;0.10;;;;;;;8.27;64.04;101822.44;7359408;19;20093;-63
2022/03/17 06:50:07;;;;;;;0.00;0.00;;;;;;;8.27;65.70;101825.03;7347276;19;20050;-63
2022/03/17 06:52:33;;;;;;;0.00;0.00;;;;;;;8.25;65.54;101821.53;7359468;19;20022;-63
2022/03/17 06:54:59;;;;;;;0.00;0.00;;;;;;;8.19;65.13;101824.13;7352298;19;20032;-63
2022/03/17 06:57:24;;;;;;;0.00;0.00;;;;;;;8.11;65.46;101803.28;7358605;19;20014;-63
2022/03/17 06:59:50;;;;;;;0.00;0.00;;;;;;;8.18;64.68;101819.78;7355692;19;20010;-63
2022/03/17 07:02:17;;;;;;;0.00;0.00;;;;;;;8.21;64.60;101824.97;7357504;19;20540;-63
2022/03/17 07:04:43;;;;;;;0.00;0.00;;;;;;;8.16;66.13;101811.09;7356467;19;20015;-63
2022/03/17 07:07:09;;;;;;;0.00;0.00;;;;;;;8.23;65.11;101831.09;7358903;19;20022;-63
2022/03/17 07:09:36;;;;;;;0.10;0.10;;;;;;;8.27;65.48;101819.84;7359082;19;20018;-62
2022/03/17 07:12:01;;;;;;;0.00;0.00;;;;;;;8.28;64.56;101825.03;7360225;19;20075;-63
2022/03/17 07:14:27;;;;;;;0.10;0.10;;;;;;;8.33;65.49;101819.84;7355070;19;20017;-63
2022/03/17 07:16:52;;;;;;;0.10;0.10;;;;;;;8.38;65.67;101812.97;7353584;19;20011;-62
2022/03/17 07:19:18;;;;;;;0.00;0.00;;;;;;;8.44;65.75;101828.59;7350878;19;20015;-63
2022/03/17 07:21:43;;;;;;;0.00;0.00;;;;;;;8.51;65.98;101825.16;7348201;19;20034;-63
2022/03/17 07:24:09;;;;;;;0.00;0.00;;;;;;;8.56;66.02;101820.84;7357969;19;20466;-63
2022/03/17 07:26:35;;;;;;;0.00;0.00;;;;;;;8.64;65.76;101831.28;7351718;19;20112;-63
2022/03/17 07:29:02;;;;;;;0.00;0.00;;;;;;;8.69;65.65;101823.50;7349331;19;20012;-63
2022/03/17 07:31:28;;;;;;;0.10;0.10;;;;;;;8.69;65.28;101815.69;7354621;19;20007;-63
2022/03/17 07:33:54;;;;;;;0.00;0.00;;;;;;;8.81;65.23;101833.94;7364455;19;20010;-63
2022/03/17 07:36:20;;;;;;;0.00;0.00;;;;;;;8.88;65.35;101814.88;7372001;19;20478;-63
2022/03/17 07:38:46;;;;;;;0.00;0.00;;;;;;;8.82;65.65;101796.63;7370055;19;20096;-63
2022/03/17 07:41:12;;;;;;;0.10;0.10;;;;;;;8.97;65.60;101820.09;7365720;19;20042;-63
2022/03/17 07:43:37;;;;;;;0.00;0.00;;;;;;;9.04;65.50;101827.06;7366033;19;20021;-63
2022/03/17 07:46:03;;;;;;;0.03;0.03;;;;;;;9.13;65.24;101843.56;7339688;19;20097;-63
2022/03/17 07:48:28;;;;;;;0.00;0.00;;;;;;;9.18;65.46;101834.91;7357726;19;21356;-62
2022/03/17 07:50:54;;;;;;;0.00;0.00;;;;;;;9.22;65.89;101807.94;7355552;19;20014;-63
2022/03/17 07:53:19;;;;;;;0.08;0.08;;;;;;;9.28;66.13;101812.31;7353074;19;20010;-63
2022/03/17 07:55:47;;;;;;;0.00;0.00;;;;;;;9.22;65.31;101781.03;7348710;19;20018;-63
2022/03/17 07:58:13;;;;;;;0.00;0.00;;;;;;;9.41;65.85;101827.06;7359103;19;20021;-63
2022/03/17 08:00:41;;;;;;;0.00;0.00;;;;;;;9.44;65.94;101815.78;7361195;19;20111;-63
2022/03/17 08:03:07;;;;;;;0.03;0.03;;;;;;;9.54;65.80;101813.19;7357093;19;20133;-63
2022/03/17 08:05:32;;;;;;;0.00;0.00;;;;;;;9.59;65.59;101819.25;7360901;19;20483;-63
2022/03/17 08:08:00;;;;;;;0.00;0.00;;;;;;;9.61;65.59;101806.22;7352227;19;20738;-62
2022/03/17 08:10:28;;;;;;;0.08;0.08;;;;;;;9.71;65.22;101817.50;7357131;19;20014;-63
2022/03/17 08:12:54;;;;;;;0.00;0.00;;;;;;;9.71;65.75;101807.06;7300633;19;20029;-62
2022/03/17 08:15:19;;;;;;;0.00;0.00;;;;;;;9.80;65.54;101809.66;1117710;19;10001981;-63
2022/03/17 08:17:45;;;;;;;0.00;0.00;;;;;;;9.77;65.28;101799.22;7356394;19;21085;-63
2022/03/17 08:20:11;;;;;;;0.00;0.00;;;;;;;9.91;65.00;101831.38;7356865;19;20030;-63
2022/03/17 08:22:36;;;;;;;0.00;0.00;;;;;;;9.95;64.97;101801.81;7366578;19;20391;-63
2022/03/17 08:25:03;;;;;;;0.00;0.00;;;;;;;10.02;65.03;101827.00;7364518;19;21023;-62
2022/03/17 08:27:28;;;;;;;0.00;0.00;;;;;;;10.07;64.92;101813.94;7361452;19;20026;-63
2022/03/17 08:29:54;;;;;;;0.00;0.00;;;;;;;10.10;65.18;101819.16;7365889;19;20043;-62
2022/03/17 08:32:19;;;;;;;0.00;0.00;;;;;;;10.12;65.04;101813.06;7360512;19;20010;-63
2022/03/17 08:34:45;;;;;;;0.00;0.00;;;;;;;10.14;64.58;101821.78;7354213;19;20726;-62
2022/03/17 08:37:10;;;;;;;0.08;0.08;;;;;;;10.22;64.63;101818.25;7352292;19;20014;-63
2022/03/17 08:39:37;;;;;;;0.03;0.03;;;;;;;10.36;64.54;101808.66;7361589;19;20062;-63
2022/03/17 08:42:03;;;;;;;0.00;0.00;;;;;;;10.50;64.82;101833.00;7358161;19;20492;-63
2022/03/17 08:44:28;;;;;;;0.00;0.00;;;;;;;10.66;64.53;101825.94;7347187;19;20015;-63
2022/03/17 08:49:38;;;;;;;0.00;0.00;;;;;;;11.02;63.90;101819.63;7356555;19;20022;-63
2022/03/17 08:52:04;;;;;;;0.10;0.10;;;;;;;11.28;63.68;101810.72;7358847;19;20014;-63
2022/03/17 08:54:34;;;;;;;0.00;0.00;;;;;;;11.42;63.50;101806.25;7353724;19;20593;-63
2022/03/17 08:56:59;;;;;;;0.00;0.00;;;;;;;11.66;62.88;101824.38;7344541;19;20043;-63
2022/03/17 08:59:33;;;;;;;0.10;0.10;;;;;;;11.84;62.83;101810.25;7354980;19;20042;-63
2022/03/17 09:02:00;;;;;;;0.00;0.00;;;;;;;12.05;62.35;101829.22;7356028;19;20018;-63
2022/03/17 09:04:25;;;;;;;0.00;0.00;;;;;;;12.14;62.05;101818.66;7355661;19;21032;-63
2022/03/17 09:06:51;;;;;;;0.00;0.00;;;;;;;12.15;61.90;101795.06;7348065;19;20014;-63
2022/03/17 09:09:17;;;;;;;0.00;0.00;;;;;;;12.50;61.56;101825.22;7356672;19;20029;-63
2022/03/17 09:11:42;;;;;;;0.00;0.00;;;;;;;12.71;60.76;101813.56;7355324;19;20011;-63
2022/03/17 09:14:08;;;;;;;0.00;0.00;;;;;;;12.85;60.11;101813.38;7365685;19;20027;-63
2022/03/17 09:16:34;;;;;;;0.00;0.00;;;;;;;12.99;60.06;101819.31;7351222;19;20006;-63
2022/03/17 09:19:00;;;;;;;0.00;0.00;;;;;;;13.20;59.95;101802.38;7356087;19;20010;-63
2022/03/17 09:21:27;;;;;;;0.00;0.00;;;;;;;13.37;59.37;101810.84;7352483;19;20357;-63
2022/03/17 09:23:53;;;;;;;0.00;0.00;;;;;;;13.54;59.48;101828.97;7357137;19;20017;-63
2022/03/17 09:26:19;;;;;;;0.00;0.00;;;;;;;13.62;58.55;101821.81;7355965;19;20006;-63
2022/03/17 09:28:45;;;;;;;0.00;0.00;;;;;;;13.82;58.53;101831.97;7355095;19;20015;-63
2022/03/17 09:31:11;;;;;;;0.05;0.05;;;;;;;13.98;58.74;101832.53;7353278;19;20010;-63
2022/03/17 09:33:36;;;;;;;0.10;0.10;;;;;;;14.08;58.31;101815.72;7353944;19;20063;-63
2022/03/17 09:36:02;;;;;;;0.00;0.00;;;;;;;14.38;57.66;101850.16;7355108;19;20010;-63
2022/03/17 09:38:28;;;;;;;0.10;0.10;;;;;;;14.55;56.71;101834.97;7354762;19;20006;-63
2022/03/17 09:40:53;;;;;;;0.00;0.00;;;;;;;14.75;56.79;101840.66;7356713;19;20014;-63
2022/03/17 09:43:19;;;;;;;0.00;0.00;;;;;;;14.92;56.00;101836.78;7352462;19;20085;-63
2022/03/17 09:45:50;;;;;;;0.00;0.00;;;;;;;15.07;56.14;101846.94;7352824;19;20030;-63
2022/03/17 09:48:16;;;;;;;0.05;0.05;;;;;;;15.16;55.14;101852.00;7354107;19;20014;-63
2022/03/17 09:50:42;;;;;;;0.00;0.00;;;;;;;15.31;55.69;101856.91;7343623;19;20014;-64
2022/03/17 09:53:09;;;;;;;0.00;0.00;;;;;;;15.49;55.19;101852.94;7355221;19;20047;-63
2022/03/17 09:55:35;;;;;;;0.00;0.00;;;;;;;15.63;55.16;101852.63;7353221;19;20470;-63
2022/03/17 09:58:03;;;;;;;0.10;0.10;;;;;;;15.73;53.38;101848.88;7350670;19;20857;-63
2022/03/17 10:00:48;;;;;;;0.00;0.00;;;;;;;15.71;53.01;101853.31;7350974;19;20010;-63
2022/03/17 10:03:15;;;;;;;0.00;0.00;;;;;;;15.73;52.87;101846.22;7356232;19;20085;-63
2022/03/17 10:05:46;;;;;;;0.00;0.00;;;;;;;15.82;53.88;101853.91;7363621;19;20089;-63
2022/03/17 10:08:16;;;;;;;0.08;0.08;;;;;;;15.93;53.51;101860.66;7352497;19;20011;-63
2022/03/17 10:10:43;;;;;;;0.10;0.10;;;;;;;16.11;52.03;101865.41;7349835;19;20014;-63
2022/03/17 10:13:21;;;;;;;0.03;0.03;;;;;;;16.30;53.15;101866.66;7348873;19;20008;-63
2022/03/17 10:16:08;;;;;;;0.01;0.01;;;;;;;16.46;53.13;101866.22;2780689;19;10150000;-63
2022/03/17 10:18:37;;;;;;;0.00;0.00;;;;;;;16.50;52.26;101878.41;6536582;19;10000305;-63
2022/03/17 10:21:17;;;;;;;0.00;0.00;;;;;;;16.80;52.82;101885.47;7343425;19;20011;-63
2022/03/17 10:24:04;;;;;;;0.00;0.00;;;;;;;16.99;52.64;101890.19;7349818;19;20018;-63
2022/03/17 10:26:30;;;;;;;0.00;0.00;;;;;;;17.07;50.96;101885.53;7347719;19;20010;-63
2022/03/17 10:29:29;;;;;;;0.10;0.10;;;;;;;17.35;51.96;101890.81;7345689;19;20014;-63
2022/03/17 10:32:01;;;;;;;0.00;0.00;;;;;;;17.52;50.77;101906.97;7246549;19;2004248;-63
2022/03/17 10:34:29;;;;;;;0.00;0.00;;;;;;;17.75;50.86;101911.56;7340864;19;20014;-63
2022/03/17 10:37:07;;;;;;;0.00;0.00;;;;;;;17.94;50.19;101905.63;7354343;19;20026;-63
2022/03/17 10:39:39;;;;;;;;;;;;;;;18.12;50.53;101912.94;7353529;19;20017;-63
2022/03/17 10:42:13;;;;;;;0.00;0.00;;;;;;;18.13;49.22;101917.28;7349372;19;19918;-63
2022/03/17 10:44:40;;;;;;;0.00;0.00;;;;;;;18.12;48.32;101907.66;7350433;19;20067;-63
2022/03/17 10:47:06;;;;;;;0.00;0.00;;;;;;;18.18;48.05;101915.34;7355246;19;20894;-63
2022/03/17 10:49:31;;;;;;;0.00;0.00;;;;;;;18.26;47.08;101915.09;7354898;19;20011;-63
2022/03/17 10:51:57;;;;;;;0.00;0.00;;;;;;;18.36;47.82;101927.94;7367058;19;20131;-63
2022/03/17 10:54:23;;;;;;;0.08;0.08;;;;;;;18.30;47.42;101899.06;7360547;19;20013;-63
2022/03/17 10:57:05;;;;;;;0.00;0.00;;;;;;;18.70;49.04;101929.38;7356033;19;20066;-63
2022/03/17 10:59:42;;;;;;;0.10;0.10;;;;;;;18.92;47.65;101917.09;7353098;19;20011;-64
2022/03/17 11:02:09;;;;;;;0.10;0.10;;;;;;;19.06;46.02;101939.50;7355555;19;20027;-64
2022/03/17 11:04:36;;;;;;;0.10;0.10;;;;;;;19.23;45.60;101939.72;7352102;19;20006;-63
2022/03/17 11:07:07;;;;;;;0.00;0.00;;;;;;;19.41;45.94;101948.72;7351661;19;20082;-63
2022/03/17 11:09:36;;;;;;;0.10;0.10;;;;;;;19.47;45.37;101947.63;7359809;19;20013;-63
2022/03/17 11:12:02;;;;;;;0.00;0.00;;;;;;;19.57;44.81;101949.00;7361210;19;20006;-63
2022/03/17 11:14:29;;;;;;;0.10;0.10;;;;;;;19.65;44.66;101957.50;7358121;19;20025;-64
2022/03/17 11:16:56;;;;;;;0.00;0.00;;;;;;;19.63;44.40;101964.66;7357236;19;20647;-63
2022/03/17 11:19:22;;;;;;;0.10;0.10;;;;;;;19.59;44.03;101953.31;7349521;19;20696;-63
2022/03/17 11:22:00;;;;;;;0.08;0.08;;;;;;;19.56;43.81;101953.41;7346078;19;20748;-63
2022/03/17 11:24:26;;;;;;;0.10;0.10;;;;;;;19.44;43.17;101967.16;7351360;19;20014;-63
2022/03/17 11:27:12;;;;;;;0.00;0.00;;;;;;;19.28;44.26;101964.25;7352713;19;20019;-63
2022/03/17 11:29:47;;;;;;;0.00;0.00;;;;;;;19.03;44.78;101966.09;7357843;19;20006;-63
2022/03/17 11:32:29;;;;;;;0.10;0.10;;;;;;;18.87;44.96;101969.31;7359060;19;20043;-63
2022/03/17 11:35:32;;;;;;;0.00;0.00;;;;;;;18.73;44.91;101966.31;7352436;19;20037;-63
2022/03/17 11:38:23;;;;;;;0.00;0.00;;;;;;;18.49;44.67;101951.28;7250341;19;2004537;-63
2022/03/17 11:41:10;;;;;;;0.10;0.10;;;;;;;18.21;45.00;101970.78;7357926;19;20044;-63
2022/03/17 11:44:00;;;;;;;0.10;0.10;;;;;;;17.89;45.30;101967.44;7361883;19;20010;-64
2022/03/17 11:46:36;;;;;;;0.00;0.00;;;;;;;17.51;45.99;101957.22;7361755;19;20010;-62